キガリ の空港の天気 - METARとTAF

キガリ国際空港 ( HRYR / KGL ) - ルワンダ キガリ
飛行場実況気象(Metar)
観測時間05/28 06:00 CAT (05/28 04:00 UTC)
風向・風速西 2m/s
視程10km以上
天気現象
少しの雲 雲底高度 790m
気温17℃
湿度88%
気圧1022hPa
METARHRYR 280400Z 28004KT 9999 FEW026 17/15 Q1022 NOSIG
過去の天気等 Google飛行場航空写真 Wunderground天気予報

過去48時間のMETAR

飛行場予報(TAF)
発表時間: 5/28 01:00 CAT (5/27 23:00 UTC)
予報対象時間: 28日2時 CAT ~ 29日8時 CAT
風向・風速北西 3m/s
視程10km以上
全天の4割程度の雲 雲底高度 760m
28日4時 CAT ~ 28日9時 CAT に一時的に
風向・風速静穏
少しの雲 雲底高度 760m
全天の4割程度の雲 雲底高度 3050m
28日14時 CAT ~ 28日19時 CAT に一時的に
風向・風速南 6m/s
少しの積乱雲 雲底高度 700m
全天の8割程度の雲 雲底高度 760m
28日22時 CAT ~ 29日1時 CAT に徐々に
風向・風速北西 3m/s
少しの雲 雲底高度 760m
全天の4割程度の雲 雲底高度 3050m
29日4時 CAT ~ 29日7時 CAT に徐々に
風向・風速不定 1m/s
HRYR 272300Z 2800/2906 32005KT 9999 SCT025
TEMPO 2802/2807 00000KT FEW025 SCT100
TEMPO 2812/2817 19012KT FEW023CB BKN025
BECMG 2820/2823 32005KT FEW025 SCT100
BECMG 2902/2905 VRB02KT